Time;durP1;ratioP1;P1;durP2;ratioP2;P2;SDS_P1;SDS_P2;PMS_P1;PMS_P2;Temp;Humidity;BMP_temperature;BMP_pressure;BME280_temperature;BME280_humidity;BME280_pressure;Samples;Min_cycle;Max_cycle;Signal;HPM_P1;HPM_P2
2022/08/23 00:00:28;;;;;;;8.77;4.03;;;;;;;-150.27;100.00;61272.81;5230216;28;20026;-77
2022/08/23 00:02:59;;;;;;;10.23;3.87;;;;;;;-150.27;100.00;61272.81;5230845;28;20119;-77
2022/08/23 00:05:30;;;;;;;8.30;3.57;;;;;;;-150.27;100.00;61272.81;5212750;28;20041;-76
2022/08/23 00:08:03;;;;;;;9.90;3.80;;;;;;;-150.27;100.00;61272.81;5230114;28;20128;-76
2022/08/23 00:10:34;;;;;;;9.57;4.50;;;;;;;-150.27;100.00;61272.81;5230287;28;20470;-75
2022/08/23 00:13:05;;;;;;;10.33;3.97;;;;;;;-150.27;100.00;61272.81;5229490;28;20032;-76
2022/08/23 00:15:36;;;;;;;11.07;5.00;;;;;;;-150.27;100.00;61272.81;5230033;28;20025;-76
2022/08/23 00:18:08;;;;;;;8.47;4.30;;;;;;;-150.27;100.00;61272.81;5230126;28;20040;-75
2022/08/23 00:20:39;;;;;;;10.87;3.97;;;;;;;-150.27;100.00;61272.81;5230102;28;20104;-76
2022/08/23 00:23:10;;;;;;;11.03;4.20;;;;;;;-150.27;100.00;61272.81;5212763;28;20037;-76
2022/08/23 00:25:42;;;;;;;9.83;4.43;;;;;;;-150.27;100.00;61272.81;5229654;28;20032;-75
2022/08/23 00:28:13;;;;;;;11.90;4.77;;;;;;;-150.27;100.00;61272.81;5228898;28;20526;-75
2022/08/23 00:30:44;;;;;;;7.23;4.20;;;;;;;-150.27;100.00;61272.81;5230052;28;20084;-76
2022/08/23 00:33:16;;;;;;;8.93;4.23;;;;;;;-150.27;100.00;61272.81;5212146;28;20083;-75
2022/08/23 00:35:47;;;;;;;7.23;4.23;;;;;;;-150.27;100.00;61272.81;5229859;28;20029;-76
2022/08/23 00:38:19;;;;;;;11.67;5.33;;;;;;;-150.27;100.00;61272.81;5230062;28;20029;-76
2022/08/23 00:40:52;;;;;;;7.53;4.13;;;;;;;-150.27;100.00;61272.81;5229997;28;20065;-76
2022/08/23 00:50:17;;;;;;;11.20;4.47;;;;;;;-150.27;100.00;61272.81;5166398;28;20121;-75
2022/08/23 00:53:10;;;;;;;9.93;4.17;;;;;;;-150.27;100.00;61272.81;5211282;28;20544;-75
2022/08/23 00:55:45;;;;;;;10.87;4.60;;;;;;;-150.27;100.00;61272.81;5229533;28;20079;-75
2022/08/23 00:58:19;;;;;;;12.33;4.90;;;;;;;-150.27;100.00;61272.81;5228984;28;20467;-76
2022/08/23 01:00:54;;;;;;;9.57;4.50;;;;;;;-150.27;100.00;61272.81;5229789;28;20060;-76
2022/08/23 01:03:27;;;;;;;9.03;4.50;;;;;;;-150.27;100.00;61272.81;5229508;28;20060;-75
2022/08/23 01:06:09;;;;;;;9.48;5.43;;;;;;;-150.27;100.00;61272.81;5229561;28;20029;-76
2022/08/23 01:08:47;;;;;;;11.63;4.83;;;;;;;-150.27;100.00;61272.81;5211740;28;20037;-76
2022/08/23 01:11:27;;;;;;;11.43;5.13;;;;;;;-150.27;100.00;61272.81;5228551;28;20052;-75
2022/08/23 01:14:10;;;;;;;13.87;5.97;;;;;;;-150.27;100.00;61272.81;5230200;28;20042;-75
2022/08/23 01:16:47;;;;;;;12.03;4.57;;;;;;;-150.27;100.00;61272.81;5229490;28;20029;-76
2022/08/23 01:19:31;;;;;;;9.70;5.27;;;;;;;-150.27;100.00;61272.81;5229564;28;20026;-76
2022/08/23 01:22:19;;;;;;;11.88;4.63;;;;;;;-150.27;100.00;61272.81;5230166;28;20037;-76
2022/08/23 01:24:52;;;;;;;11.97;4.80;;;;;;;-150.27;100.00;61272.81;5229187;28;20556;-76
2022/08/23 01:27:23;;;;;;;13.63;4.77;;;;;;;-150.27;100.00;61272.81;5212437;28;20029;-76
2022/08/23 01:29:54;;;;;;;9.63;5.10;;;;;;;-150.27;100.00;61272.81;5233427;28;20037;-77
2022/08/23 01:32:28;;;;;;;8.90;4.40;;;;;;;-150.27;100.00;61272.81;5232982;28;20025;-77
2022/08/23 01:34:59;;;;;;;9.05;4.63;;;;;;;-150.27;100.00;61272.81;5233462;28;20033;-77
2022/08/23 01:37:32;;;;;;;13.37;5.00;;;;;;;-150.27;100.00;61272.81;5235044;28;20026;-76
2022/08/23 01:40:05;;;;;;;10.77;5.30;;;;;;;-150.27;100.00;61272.81;5234095;28;20642;-76
2022/08/23 01:42:40;;;;;;;9.50;4.53;;;;;;;-150.27;100.00;61272.81;5231870;28;20031;-75
2022/08/23 01:45:13;;;;;;;11.03;4.50;;;;;;;-150.27;100.00;61272.81;5233066;28;20558;-76
2022/08/23 01:47:44;;;;;;;8.77;3.77;;;;;;;-150.27;100.00;61272.81;5215037;28;20120;-76
2022/08/23 01:50:16;;;;;;;10.67;4.57;;;;;;;-150.27;100.00;61272.81;5233113;28;20441;-75
2022/08/23 01:52:47;;;;;;;8.43;4.70;;;;;;;-150.27;100.00;61272.81;5232672;28;20026;-76
2022/08/23 01:55:19;;;;;;;20.20;6.27;;;;;;;-150.27;100.00;61272.81;5233165;28;20726;-75
2022/08/23 01:57:53;;;;;;;12.77;5.13;;;;;;;-150.27;100.00;61272.81;5231729;28;20056;-76
2022/08/23 02:00:31;;;;;;;11.30;4.77;;;;;;;-150.27;100.00;61272.81;5232716;28;20100;-77
2022/08/23 02:03:03;;;;;;;9.30;4.60;;;;;;;-150.27;100.00;61272.81;5232284;28;20152;-75
2022/08/23 02:05:36;;;;;;;8.20;4.30;;;;;;;-150.27;100.00;61272.81;5232738;28;20600;-76
2022/08/23 02:10:57;;;;;;;11.03;5.17;;;;;;;-150.27;100.00;61272.81;5232138;28;20394;-76
2022/08/23 02:13:29;;;;;;;13.57;4.83;;;;;;;-150.27;100.00;61272.81;5232003;28;20025;-76
2022/08/23 02:16:00;;;;;;;9.03;4.50;;;;;;;-150.27;100.00;61272.81;5232416;28;20033;-76
2022/08/23 02:18:31;;;;;;;8.70;4.30;;;;;;;-150.27;100.00;61272.81;5232722;28;20049;-76
2022/08/23 02:21:03;;;;;;;11.57;5.03;;;;;;;-150.27;100.00;61272.81;5232024;28;20041;-77
2022/08/23 02:23:35;;;;;;;11.83;5.20;;;;;;;-150.27;100.00;61272.81;5232638;28;20033;-75
2022/08/23 02:26:06;;;;;;;13.87;4.70;;;;;;;-150.27;100.00;61272.81;5231110;28;20478;-76
2022/08/23 02:28:37;;;;;;;13.97;5.40;;;;;;;-150.27;100.00;61272.81;5232182;28;20033;-75
2022/08/23 02:31:09;;;;;;;11.60;5.67;;;;;;;-150.27;100.00;61272.81;5231973;28;20510;-75
2022/08/23 02:33:41;;;;;;;15.20;4.83;;;;;;;-150.27;100.00;61272.81;5232104;28;20091;-75
2022/08/23 02:36:12;;;;;;;11.47;6.13;;;;;;;-150.27;100.00;61272.81;5232417;28;20029;-77
2022/08/23 02:38:44;;;;;;;10.90;5.37;;;;;;;-150.27;100.00;61272.81;5230953;28;20025;-77
2022/08/23 02:41:16;;;;;;;12.53;5.77;;;;;;;-150.27;100.00;61272.81;5231191;28;20088;-76
2022/08/23 02:43:51;;;;;;;9.43;5.30;;;;;;;-150.27;100.00;61272.81;5231575;28;20025;-77
2022/08/23 02:46:23;;;;;;;9.50;4.97;;;;;;;-150.27;100.00;61272.81;5231508;28;20033;-76
2022/08/23 02:48:55;;;;;;;10.70;5.87;;;;;;;-150.27;100.00;61272.81;5231927;28;20031;-76
2022/08/23 02:51:27;;;;;;;12.00;5.37;;;;;;;-150.27;100.00;61272.81;5231607;28;20575;-77
2022/08/23 02:53:58;;;;;;;10.57;5.23;;;;;;;-150.27;100.00;61272.81;5231813;28;20033;-77
2022/08/23 02:56:30;;;;;;;11.43;5.83;;;;;;;-150.27;100.00;61272.81;5212531;28;20029;-77
2022/08/23 02:59:01;;;;;;;16.17;5.93;;;;;;;-150.27;100.00;61272.81;5236312;28;20137;-77
2022/08/23 03:01:36;;;;;;;9.90;4.80;;;;;;;-150.27;100.00;61272.81;5231269;28;20480;-77
2022/08/23 03:04:09;;;;;;;9.13;4.97;;;;;;;-150.27;100.00;61272.81;5231465;28;20064;-77
2022/08/23 03:06:41;;;;;;;10.52;6.18;;;;;;;-150.27;100.00;61272.81;5213346;28;20048;-76
2022/08/23 03:09:12;;;;;;;13.33;5.63;;;;;;;-150.27;100.00;61272.81;5231283;28;20059;-77
2022/08/23 03:11:46;;;;;;;9.47;4.90;;;;;;;-150.27;100.00;61272.81;5229762;28;20033;-75
2022/08/23 03:14:17;;;;;;;12.88;5.78;;;;;;;-150.27;100.00;61272.81;5231107;28;20044;-75
2022/08/23 03:17:09;;;;;;;12.10;4.83;;;;;;;18.16;72.11;101283.03;5268986;28;20390;-75
2022/08/23 03:19:40;;;;;;;9.97;5.30;;;;;;;18.32;71.80;101282.56;5268714;28;20135;-75
2022/08/23 03:22:11;;;;;;;13.23;5.50;;;;;;;18.23;72.47;101289.50;5268946;28;20508;-76
2022/08/23 03:24:43;;;;;;;9.80;5.10;;;;;;;18.26;72.95;101284.78;5269000;28;20364;-76
2022/08/23 03:27:15;;;;;;;11.27;6.40;;;;;;;18.04;73.74;101285.75;5267236;28;20561;-76
2022/08/23 03:29:46;;;;;;;12.63;5.77;;;;;;;17.99;74.87;101298.53;5269148;28;20032;-76
2022/08/23 03:32:18;;;;;;;12.30;6.27;;;;;;;17.87;75.27;101288.00;5268679;28;20025;-75
2022/08/23 03:34:49;;;;;;;10.30;5.43;;;;;;;17.88;75.95;101289.69;5268361;28;20201;-76
2022/08/23 03:37:20;;;;;;;11.50;5.60;;;;;;;17.99;74.77;101295.91;5268605;28;20025;-76
2022/08/23 03:39:51;;;;;;;14.03;5.37;;;;;;;17.89;75.74;101294.00;5268139;28;20013;-76
2022/08/23 03:42:23;;;;;;;11.93;5.70;;;;;;;18.05;74.96;101282.13;5267449;28;20028;-77
2022/08/23 03:44:55;;;;;;;11.27;5.57;;;;;;;18.04;74.74;101295.50;5266856;28;20154;-77
2022/08/23 03:47:27;;;;;;;9.17;5.63;;;;;;;17.95;76.03;101297.97;5268323;28;20085;-77
2022/08/23 03:49:58;;;;;;;11.27;5.77;;;;;;;17.82;76.01;101303.44;5268539;28;20025;-77
2022/08/23 03:52:30;;;;;;;12.63;6.30;;;;;;;17.83;76.21;101294.53;5267613;28;20051;-77
2022/08/23 03:55:01;;;;;;;11.53;6.30;;;;;;;17.87;75.88;101301.25;5268508;28;20025;-77
2022/08/23 03:57:33;;;;;;;10.53;6.40;;;;;;;17.84;76.01;101306.81;5266611;28;20029;-76
2022/08/23 04:00:07;;;;;;;11.47;6.53;;;;;;;17.72;77.32;101308.69;5268132;28;20035;-76
2022/08/23 04:02:39;;;;;;;9.70;6.07;;;;;;;17.87;75.47;101300.41;5266147;28;20025;-76
2022/08/23 04:05:11;;;;;;;9.67;6.47;;;;;;;17.67;76.51;101300.28;5267585;28;20090;-76
2022/08/23 04:07:42;;;;;;;16.20;7.03;;;;;;;17.82;75.68;101302.63;5267157;28;20031;-77
2022/08/23 04:10:14;;;;;;;13.37;7.67;;;;;;;17.82;75.50;101310.56;5267002;28;20475;-76
2022/08/23 04:12:45;;;;;;;14.80;6.87;;;;;;;17.82;75.72;101303.44;5267038;28;20025;-76
2022/08/23 04:15:19;;;;;;;16.93;6.67;;;;;;;17.95;74.71;101311.22;5267317;28;20055;-76
2022/08/23 04:17:50;;;;;;;17.07;6.77;;;;;;;17.87;75.21;101314.50;5267813;28;20027;-76
2022/08/23 04:20:21;;;;;;;12.73;8.17;;;;;;;17.90;75.36;101316.91;5267262;28;20535;-76
2022/08/23 04:22:54;;;;;;;17.70;7.30;;;;;;;17.78;75.93;101317.94;5267742;28;20079;-76
2022/08/23 04:25:25;;;;;;;13.70;7.50;;;;;;;17.45;76.68;101275.59;5265911;28;20020;-76
2022/08/23 04:27:57;;;;;;;12.87;7.73;;;;;;;17.84;75.46;101312.09;5256710;28;20098;-76
2022/08/23 04:30:29;;;;;;;12.63;6.67;;;;;;;17.78;75.79;101324.03;5253622;28;20523;-75
2022/08/23 04:33:00;;;;;;;14.20;8.80;;;;;;;17.43;76.69;101280.16;5253286;28;20021;-76
2022/08/23 04:35:31;;;;;;;17.23;8.40;;;;;;;17.62;77.36;101324.50;5253467;28;20506;-75
2022/08/23 04:38:02;;;;;;;17.27;8.00;;;;;;;17.86;75.23;101320.78;5254169;28;20040;-75
2022/08/23 04:43:24;;;;;;;14.10;7.00;;;;;;;17.88;75.67;101329.44;5254041;28;20029;-76
2022/08/23 04:45:55;;;;;;;17.20;8.37;;;;;;;17.96;75.47;101320.81;5252340;28;20017;-77
2022/08/23 04:48:26;;;;;;;13.90;8.03;;;;;;;17.89;75.36;101333.75;5251986;28;20017;-77
2022/08/23 04:50:58;;;;;;;11.40;7.90;;;;;;;18.03;74.41;101331.75;5253387;28;20029;-76
2022/08/23 04:53:31;;;;;;;13.97;7.50;;;;;;;18.03;74.42;101334.41;5251614;28;20471;-75
2022/08/23 04:56:04;;;;;;;12.40;6.85;;;;;;;17.86;76.73;101341.97;5252280;28;20040;-75
2022/08/23 04:58:37;;;;;;;13.70;7.57;;;;;;;17.82;76.70;101345.00;5251125;28;20024;-76
2022/08/23 05:01:09;;;;;;;17.37;7.77;;;;;;;17.78;77.29;101339.13;5251700;28;20088;-76
2022/08/23 05:03:41;;;;;;;14.17;8.57;;;;;;;17.94;76.25;101343.13;5253152;28;20116;-76
2022/08/23 05:06:12;;;;;;;11.33;8.00;;;;;;;18.08;75.95;101340.16;5251611;28;20112;-77
2022/08/23 05:08:43;;;;;;;16.40;9.60;;;;;;;17.95;75.65;101335.06;5252196;28;20029;-77
2022/08/23 05:11:15;;;;;;;17.07;7.93;;;;;;;17.96;76.07;101341.22;5251448;28;20032;-75
2022/08/23 05:13:47;;;;;;;14.80;8.23;;;;;;;17.78;76.95;101334.63;5253012;28;20025;-76
2022/08/23 05:16:18;;;;;;;14.13;8.30;;;;;;;18.02;75.51;101341.53;5252177;28;20045;-75
2022/08/23 05:18:50;;;;;;;11.13;7.60;;;;;;;18.16;75.19;101346.66;5253121;28;20756;-76
2022/08/23 05:21:23;;;;;;;14.03;8.53;;;;;;;18.18;75.05;101345.56;5251379;28;20459;-75
2022/08/23 05:23:54;;;;;;;12.93;9.33;;;;;;;18.01;75.80;101339.00;5251334;28;20032;-75
2022/08/23 05:26:25;;;;;;;17.77;9.17;;;;;;;18.19;75.45;101333.13;5250243;28;20488;-75
2022/08/23 05:28:57;;;;;;;19.17;9.13;;;;;;;18.12;75.87;101341.59;5252099;28;20029;-75
2022/08/23 05:31:29;;;;;;;18.80;9.77;;;;;;;18.31;74.97;101350.66;5252714;28;20503;-76
2022/08/23 05:34:01;;;;;;;12.33;7.93;;;;;;;18.29;75.42;101349.97;5250754;28;20024;-76
2022/08/23 05:36:33;;;;;;;15.83;9.40;;;;;;;18.34;75.66;101345.09;5252384;28;20133;-76
2022/08/23 05:39:05;;;;;;;14.90;9.23;;;;;;;18.42;75.07;101349.75;5251304;28;20036;-76
2022/08/23 05:41:39;;;;;;;18.00;9.83;;;;;;;18.46;75.14;101363.56;5251265;28;20373;-77
2022/08/23 05:44:10;;;;;;;17.63;8.43;;;;;;;18.56;75.33;101369.78;5252108;28;20025;-74
2022/08/23 05:46:42;;;;;;;18.70;9.07;;;;;;;18.58;75.74;101383.75;5251353;28;20482;-76
2022/08/23 05:49:13;;;;;;;18.47;9.83;;;;;;;18.69;75.58;101374.88;5250742;28;20486;-76
2022/08/23 05:51:44;;;;;;;24.47;9.83;;;;;;;18.70;75.40;101378.34;5251790;28;20029;-77
2022/08/23 05:54:16;;;;;;;21.43;9.53;;;;;;;18.73;76.02;101375.41;5251974;28;20059;-76
2022/08/23 05:56:47;;;;;;;25.00;9.43;;;;;;;18.78;75.59;101383.81;5251008;28;20044;-77
2022/08/23 05:59:19;;;;;;;23.80;9.37;;;;;;;18.80;75.49;101373.91;5251443;28;20029;-77
2022/08/23 06:01:50;;;;;;;21.57;8.37;;;;;;;18.91;74.83;101388.06;5252236;28;20025;-77
2022/08/23 06:04:22;;;;;;;17.57;8.87;;;;;;;18.92;74.91;101387.94;5251435;28;20037;-78
2022/08/23 06:06:57;;;;;;;19.13;10.03;;;;;;;18.77;76.31;101384.81;5251725;28;20539;-77
2022/08/23 06:09:28;;;;;;;21.67;10.37;;;;;;;18.97;74.98;101395.50;5252162;28;20029;-77
2022/08/23 06:12:00;;;;;;;18.00;8.50;;;;;;;18.97;74.21;101387.53;5251192;28;20025;-77
2022/08/23 06:14:31;;;;;;;22.23;9.00;;;;;;;18.90;73.67;101391.69;5251396;28;20669;-77
2022/08/23 06:17:02;;;;;;;18.37;9.03;;;;;;;19.01;73.21;101383.63;5251522;28;20045;-76
2022/08/23 06:19:34;;;;;;;19.67;8.80;;;;;;;18.95;73.95;101384.19;5251540;28;20106;-76
2022/08/23 06:22:05;;;;;;;14.60;9.10;;;;;;;19.09;73.22;101397.06;5251523;28;20166;-76
2022/08/23 06:24:36;;;;;;;19.47;8.57;;;;;;;18.95;75.10;101381.53;5249963;28;20503;-76
2022/08/23 06:27:07;;;;;;;19.53;8.93;;;;;;;19.19;74.35;101402.44;5250191;28;20689;-78
2022/08/23 06:29:39;;;;;;;19.03;8.10;;;;;;;19.20;74.01;101398.00;5251457;28;20095;-76
2022/08/23 06:32:10;;;;;;;19.17;8.97;;;;;;;19.29;74.42;101407.78;5251063;28;20387;-76
2022/08/23 06:34:41;;;;;;;34.23;10.07;;;;;;;19.28;75.57;101403.47;5249879;28;20021;-77
2022/08/23 06:37:14;;;;;;;21.50;8.80;;;;;;;19.18;77.60;101390.13;5251539;28;20174;-76
2022/08/23 06:39:45;;;;;;;19.20;8.80;;;;;;;19.09;76.17;101397.06;5250569;28;20028;-76
2022/08/23 06:42:17;;;;;;;21.47;8.20;;;;;;;19.27;75.34;101404.41;5250065;28;20096;-77
2022/08/23 06:44:49;;;;;;;19.23;9.80;;;;;;;19.34;75.82;101400.25;5250814;28;20119;-84
2022/08/23 06:47:20;;;;;;;16.67;9.27;;;;;;;19.43;75.24;101397.72;5250532;28;20017;-84
2022/08/23 06:49:53;;;;;;;21.27;8.87;;;;;;;19.45;74.51;101391.31;5251286;28;20035;-83
2022/08/23 06:52:26;;;;;;;13.40;8.50;;;;;;;19.49;74.02;101391.91;5250843;28;20028;-80
2022/08/23 06:54:57;;;;;;;22.33;10.20;;;;;;;19.48;74.61;101390.19;5248181;28;20494;-84
2022/08/23 06:57:28;;;;;;;21.73;9.10;;;;;;;19.61;72.95;101394.41;5250732;28;20041;-84
2022/08/23 07:00:00;;;;;;;21.47;10.47;;;;;;;19.61;72.88;101389.94;5252765;28;20104;-82
2022/08/23 07:02:31;;;;;;;18.90;10.63;;;;;;;19.69;71.57;101391.88;5250873;28;20603;-83
2022/08/23 07:05:03;;;;;;;28.10;11.83;;;;;;;19.78;69.56;101396.38;5254991;28;20331;-83
2022/08/23 07:07:34;;;;;;;17.97;11.80;;;;;;;19.73;68.72;101380.00;5255111;28;20074;-85
2022/08/23 07:10:06;;;;;;;16.33;11.60;;;;;;;19.85;68.30;101396.66;5250982;28;20614;-83
2022/08/23 07:12:41;;;;;;;19.40;10.80;;;;;;;19.94;68.58;101406.47;5250225;28;20185;-85
2022/08/23 07:15:12;;;;;;;19.43;12.10;;;;;;;19.99;68.09;101403.38;5250461;28;20041;-83
2022/08/23 07:17:43;;;;;;;17.70;9.93;;;;;;;20.10;68.01;101404.22;5250380;28;20035;-84
2022/08/23 07:20:15;;;;;;;20.77;11.40;;;;;;;20.18;67.31;101407.00;5250846;28;20013;-84
2022/08/23 07:22:46;;;;;;;19.00;10.37;;;;;;;20.39;66.97;101414.81;5252120;28;20085;-84
2022/08/23 07:25:17;;;;;;;18.00;10.00;;;;;;;20.48;66.59;101389.19;5248668;28;20087;-82
2022/08/23 07:27:48;;;;;;;20.20;11.13;;;;;;;20.71;67.83;101402.13;5251817;28;20079;-82
2022/08/23 07:30:20;;;;;;;17.73;10.10;;;;;;;20.92;66.97;101414.38;5249148;28;20100;-84
2022/08/23 07:32:52;;;;;;;19.00;10.47;;;;;;;21.12;65.02;101409.00;5251325;28;20029;-81
2022/08/23 07:35:23;;;;;;;19.27;11.07;;;;;;;21.45;64.43;101420.00;5252643;28;20036;-81
2022/08/23 07:37:56;;;;;;;19.03;10.77;;;;;;;21.68;63.90;101414.25;5250954;28;20421;-77
2022/08/23 07:40:27;;;;;;;16.67;9.27;;;;;;;22.04;62.05;101423.25;5249380;28;20017;-77
2022/08/23 07:42:59;;;;;;;17.67;10.27;;;;;;;22.40;59.77;101420.50;5250428;28;20025;-77
2022/08/23 07:45:30;;;;;;;16.58;9.57;;;;;;;22.96;58.13;101420.19;5250406;28;20021;-77
2022/08/23 07:48:02;;;;;;;15.80;9.23;;;;;;;23.60;57.24;101428.72;5249167;28;20036;-78
2022/08/23 07:50:33;;;;;;;19.00;10.18;;;;;;;24.28;54.99;101433.13;5250443;28;20280;-76
2022/08/23 07:53:04;;;;;;;18.85;9.57;;;;;;;24.95;53.02;101436.50;5249005;28;20043;-78
2022/08/23 07:55:38;;;;;;;17.77;9.52;;;;;;;25.57;51.78;101428.63;5247732;28;20059;-77
2022/08/23 07:58:10;;;;;;;15.05;9.02;;;;;;;26.22;49.67;101419.41;5251091;28;20021;-80
2022/08/23 08:00:41;;;;;;;19.63;8.80;;;;;;;26.89;48.30;101421.41;5249338;28;20558;-78
2022/08/23 08:03:15;;;;;;;12.40;8.25;;;;;;;27.34;46.33;101426.69;5251680;28;20086;-79
2022/08/23 08:05:46;;;;;;;19.25;9.23;;;;;;;28.16;45.18;101439.06;5252993;28;20020;-79
2022/08/23 08:08:17;;;;;;;17.67;8.10;;;;;;;28.54;43.84;101442.44;5254209;28;20031;-78
2022/08/23 08:10:53;;;;;;;16.85;7.50;;;;;;;29.08;43.51;101440.03;5251190;28;20028;-79
2022/08/23 08:13:24;;;;;;;20.88;8.57;;;;;;;29.56;41.41;101440.97;5253859;28;20035;-78
2022/08/23 08:15:55;;;;;;;15.70;7.93;;;;;;;29.64;41.63;101443.50;5252332;28;20053;-79
2022/08/23 08:18:26;;;;;;;18.33;7.00;;;;;;;30.24;38.54;101446.41;5254130;28;20025;-78
2022/08/23 08:20:58;;;;;;;13.82;7.47;;;;;;;30.28;38.85;101443.13;5252539;28;20033;-79
2022/08/23 08:23:29;;;;;;;19.90;7.88;;;;;;;30.11;38.85;101452.66;5253447;28;20029;-79
2022/08/23 08:26:04;;;;;;;19.20;7.78;;;;;;;29.99;39.31;101455.16;5253229;28;20033;-79
2022/08/23 08:28:36;;;;;;;13.30;7.13;;;;;;;30.10;39.22;101450.97;5253325;28;20017;-79
2022/08/23 08:31:09;;;;;;;21.38;8.65;;;;;;;30.16;38.96;101456.38;5253599;28;20021;-77
2022/08/23 08:33:40;;;;;;;22.63;8.52;;;;;;;30.23;38.71;101455.56;5253186;28;20028;-78
2022/08/23 08:36:28;;;;;;;20.70;7.07;;;;;;;30.76;39.93;101449.22;5253853;28;20052;-78
2022/08/23 08:39:01;;;;;;;11.93;7.03;;;;;;;31.00;37.10;101448.75;5253073;28;20032;-78
2022/08/23 08:41:50;;;;;;;17.92;7.07;;;;;;;32.41;37.59;101454.19;5258082;28;20017;-77
2022/08/23 08:44:39;;;;;;;17.80;6.60;;;;;;;32.96;35.73;101463.38;5252641;28;20029;-78
2022/08/23 08:47:18;;;;;;;20.27;7.43;;;;;;;33.03;35.71;101463.28;5251970;28;20501;-79
2022/08/23 08:50:04;;;;;;;21.92;7.00;;;;;;;33.60;35.48;101457.72;5253493;28;20028;-78
2022/08/23 08:52:41;;;;;;;14.20;7.78;;;;;;;32.56;34.94;101470.09;5252736;28;20032;-78
2022/08/23 08:55:20;;;;;;;19.15;6.97;;;;;;;32.97;34.46;101461.50;5252715;28;20059;-78
2022/08/23 08:57:53;;;;;;;17.40;5.90;;;;;;;33.70;32.98;101471.56;5253305;28;20025;-78
2022/08/23 09:00:29;;;;;;;12.98;6.10;;;;;;;33.77;32.45;101469.59;5252728;28;20025;-77
2022/08/23 09:03:08;;;;;;;17.02;5.35;;;;;;;33.90;32.53;101475.81;5252992;28;20021;-78
2022/08/23 09:05:54;;;;;;;17.98;4.85;;;;;;;34.39;32.08;101466.63;5253196;28;20044;-77
2022/08/23 09:08:43;;;;;;;11.40;4.43;;;;;;;34.83;31.95;101477.09;5252844;28;20033;-78
2022/08/23 09:11:52;;;;;;;14.18;4.90;;;;;;;35.35;31.40;101482.69;5251439;28;20025;-78
2022/08/23 09:14:36;;;;;;;13.88;5.10;;;;;;;35.17;30.97;101478.28;5250737;28;20029;-79
2022/08/23 09:17:26;;;;;;;14.02;3.53;;;;;;;34.93;31.12;101476.47;5252586;28;20056;-78
2022/08/23 09:20:00;;;;;;;13.68;3.97;;;;;;;34.49;31.37;101466.84;5252720;28;20124;-78
2022/08/23 09:22:53;;;;;;;15.52;3.63;;;;;;;35.08;31.43;101478.69;5252194;28;20472;-78
2022/08/23 09:25:25;;;;;;;16.80;4.53;;;;;;;35.53;29.86;101469.94;5251356;28;20036;-78
2022/08/23 09:27:56;;;;;;;10.20;4.10;;;;;;;35.38;29.41;101475.94;5252920;28;20499;-78
2022/08/23 09:30:54;;;;;;;11.87;4.40;;;;;;;36.00;30.51;101476.97;5251981;28;20025;-77
2022/08/23 09:33:48;;;;;;;10.00;3.65;;;;;;;36.21;30.10;101474.53;5250590;28;20108;-77
2022/08/23 09:36:25;;;;;;;7.60;2.65;;;;;;;36.12;28.74;101485.06;5252173;28;20488;-78
2022/08/23 09:38:59;;;;;;;8.23;2.55;;;;;;;36.07;27.62;101484.97;5252235;28;20039;-77
2022/08/23 09:41:35;;;;;;;10.77;3.03;;;;;;;35.44;28.92;101481.25;5251141;28;20472;-78
2022/08/23 09:44:12;;;;;;;10.63;3.05;;;;;;;35.67;28.04;101482.16;5251789;28;20025;-77
2022/08/23 09:46:43;;;;;;;10.93;2.83;;;;;;;35.17;29.28;101487.28;5251717;28;20025;-77
2022/08/23 09:49:28;;;;;;;7.17;3.17;;;;;;;36.49;28.83;101483.69;5251979;28;20017;-78
2022/08/23 09:52:16;;;;;;;5.55;2.25;;;;;;;36.48;27.21;101486.66;5250787;28;20029;-79
2022/08/23 09:55:03;;;;;;;7.45;2.85;;;;;;;37.22;26.66;101468.13;5249530;28;20024;-79
2022/08/23 09:57:34;;;;;;;7.70;2.70;;;;;;;37.58;25.68;101486.75;5251749;28;20491;-79
2022/08/23 10:00:15;;;;;;;7.70;2.53;;;;;;;38.17;25.95;101478.72;5251794;28;20028;-78
2022/08/23 10:02:46;;;;;;;11.77;3.45;;;;;;;37.39;25.96;101470.75;5250422;28;20079;-78
2022/08/23 10:05:27;;;;;;;6.83;2.50;;;;;;;37.35;25.04;101472.38;5251802;28;20104;-78
2022/08/23 10:08:00;;;;;;;9.23;2.13;;;;;;;37.39;25.19;101465.31;5251561;28;20480;-78
2022/08/23 10:10:47;;;;;;;;;;;;;;;38.91;24.94;101460.72;5251205;28;20033;-78
2022/08/23 10:13:19;;;;;;;8.23;2.55;;;;;;;38.17;25.21;101466.97;5249896;28;19912;-78
2022/08/23 10:16:07;;;;;;;9.68;2.47;;;;;;;39.04;25.08;101460.19;5251247;28;20052;-77
2022/08/23 10:18:53;;;;;;;8.88;2.75;;;;;;;39.28;23.79;101459.69;5250953;28;20029;-78
2022/08/23 10:21:39;;;;;;;8.63;2.42;;;;;;;39.02;24.51;101462.38;5251422;28;20115;-77
2022/08/23 10:24:18;;;;;;;7.63;2.17;;;;;;;39.32;23.97;101457.22;5251414;28;20028;-77
2022/08/23 10:30:19;;;;;;;8.10;2.30;;;;;;;38.06;25.42;101464.16;5251269;28;20037;-77
2022/08/23 10:32:55;;;;;;;10.52;2.40;;;;;;;38.92;24.19;101455.00;5250209;28;20025;-78
2022/08/23 10:35:30;;;;;;;7.65;2.70;;;;;;;39.32;23.38;101460.81;5250933;28;20651;-78
2022/08/23 10:38:14;;;;;;;8.05;2.35;;;;;;;39.76;22.34;101460.53;5251442;28;20033;-78
2022/08/23 10:40:59;;;;;;;9.70;2.70;;;;;;;38.68;23.87;101447.22;5249082;28;20025;-78
2022/08/23 10:43:56;;;;;;;7.68;1.98;;;;;;;39.74;23.74;101449.84;5250319;28;20017;-78
2022/08/23 10:46:30;;;;;;;11.90;2.90;;;;;;;39.12;24.14;101455.28;5250497;28;20868;-77
2022/08/23 10:49:03;;;;;;;5.80;1.90;;;;;;;39.00;22.75;101442.66;5249925;28;20532;-79
2022/08/23 10:51:44;;;;;;;5.65;1.80;;;;;;;39.54;23.05;101451.47;5248934;28;20033;-78
2022/08/23 10:54:44;;;;;;;4.65;2.20;;;;;;;38.70;23.28;101449.72;5249819;28;20095;-78
2022/08/23 10:57:19;;;;;;;8.13;1.85;;;;;;;39.05;22.36;101439.94;5250790;28;20031;-78
2022/08/23 10:59:51;;;;;;;5.63;1.90;;;;;;;38.28;22.62;101449.53;5250403;28;20040;-78
2022/08/23 11:03:18;;;;;;;6.97;2.15;;;;;;;39.26;22.60;101448.19;5250628;28;20025;-79
2022/08/23 11:06:27;;;;;;;4.15;1.85;;;;;;;38.59;23.48;101446.91;5237451;28;20406;-78
2022/08/23 11:09:29;;;;;;;8.20;2.22;;;;;;;38.76;23.32;101445.91;5249641;28;20647;-79
2022/08/23 11:12:20;;;;;;;5.60;2.30;;;;;;;37.81;24.54;101432.84;5249573;28;20557;-78
2022/08/23 11:14:55;;;;;;;5.18;1.65;;;;;;;36.36;25.93;101441.22;5249329;28;20033;-78
2022/08/23 11:17:48;;;;;;;4.50;2.13;;;;;;;37.47;24.72;101450.38;5250679;28;20537;-78
2022/08/23 11:20:47;;;;;;;4.50;1.83;;;;;;;37.17;25.29;101438.88;5250625;28;20048;-78
2022/08/23 11:23:37;;;;;;;7.07;2.33;;;;;;;37.45;25.07;101443.50;5250729;28;20122;-78
2022/08/23 11:26:38;;;;;;;6.05;2.33;;;;;;;37.27;25.15;101437.34;5249163;28;20021;-78
2022/08/23 11:29:10;;;;;;;5.38;2.25;;;;;;;35.97;26.01;101447.50;5216575;28;20072;-78
2022/08/23 11:32:00;;;;;;;4.93;2.00;;;;;;;36.81;25.81;101435.81;5250591;28;20061;-78
2022/08/23 11:35:04;;;;;;;9.93;2.20;;;;;;;35.67;26.77;101441.31;5250101;28;20036;-78
2022/08/23 11:37:59;;;;;;;8.43;2.65;;;;;;;35.39;27.45;101437.59;5250404;28;20025;-78
2022/08/23 11:40:39;;;;;;;6.60;1.70;;;;;;;35.35;26.67;101445.44;5253424;28;20032;-79
2022/08/23 11:43:25;;;;;;;6.90;2.42;;;;;;;35.75;26.06;101434.63;5254406;28;20021;-78
2022/08/23 11:46:24;;;;;;;7.05;2.22;;;;;;;34.81;27.86;101445.75;5255944;28;20029;-78
2022/08/23 11:49:14;;;;;;;7.28;2.35;;;;;;;34.91;28.06;101439.69;5257012;28;20029;-79
2022/08/23 11:52:17;;;;;;;7.20;2.13;;;;;;;34.78;27.81;101440.81;5252963;28;20036;-78
2022/08/23 11:55:06;;;;;;;7.97;2.33;;;;;;;34.95;27.39;101435.41;5253545;28;20087;-79
2022/08/23 11:57:50;;;;;;;5.30;2.17;;;;;;;35.10;27.64;101437.59;5254047;28;20025;-79
2022/08/23 12:00:52;;;;;;;8.15;2.67;;;;;;;34.09;29.21;101443.13;5253861;28;20021;-79
2022/08/23 12:03:32;;;;;;;7.75;2.38;;;;;;;34.84;27.79;101440.66;5253752;28;20025;-79
2022/08/23 12:06:38;;;;;;;7.25;2.28;;;;;;;35.26;27.77;101438.72;5254393;28;20040;-78
2022/08/23 12:09:34;;;;;;;6.10;2.05;;;;;;;35.33;27.23;101449.47;5248799;28;20033;-79